Time;durP1;ratioP1;P1;durP2;ratioP2;P2;SDS_P1;SDS_P2;PMS_P1;PMS_P2;Temp;Humidity;BMP_temperature;BMP_pressure;BME280_temperature;BME280_humidity;BME280_pressure;Samples;Min_cycle;Max_cycle;Signal;HPM_P1;HPM_P2
2022/05/14 00:00:45;;;;;;;10.32;3.70;;;13.70;99.90;;;;;;5034604;28;20040;-60
2022/05/14 00:03:11;;;;;;;11.68;4.35;;;13.60;99.90;;;;;;5031737;28;20025;-60
2022/05/14 00:05:37;;;;;;;12.43;4.18;;;13.70;99.90;;;;;;5034070;28;20029;-60
2022/05/14 00:08:03;;;;;;;12.20;4.00;;;13.60;99.90;;;;;;5034060;28;20532;-60
2022/05/14 00:10:32;;;;;;;11.75;3.67;;;13.60;99.90;;;;;;5034238;28;20418;-60
2022/05/14 00:13:04;;;;;;;11.93;4.03;;;13.50;99.90;;;;;;5034498;28;20033;-60
2022/05/14 00:15:32;;;;;;;10.48;3.85;;;13.40;99.90;;;;;;5034052;28;20028;-60
2022/05/14 00:17:58;;;;;;;9.07;3.70;;;13.40;99.90;;;;;;5014488;28;20089;-60
2022/05/14 00:20:24;;;;;;;12.95;3.92;;;13.30;99.90;;;;;;5036022;28;20033;-60
2022/05/14 00:22:51;;;;;;;10.95;4.22;;;13.40;99.90;;;;;;5034455;28;20433;-60
2022/05/14 00:25:17;;;;;;;11.80;4.07;;;13.50;99.90;;;;;;5034587;28;20411;-60
2022/05/14 00:27:44;;;;;;;15.10;4.38;;;13.60;99.90;;;;;;5034334;28;20035;-60
2022/05/14 00:30:13;;;;;;;15.25;4.65;;;13.60;99.90;;;;;;5030031;28;20451;-59
2022/05/14 00:32:39;;;;;;;13.88;4.57;;;13.60;99.90;;;;;;5032997;28;20429;-59
2022/05/14 00:35:06;;;;;;;11.82;4.53;;;13.60;99.90;;;;;;5035683;28;20398;-60
2022/05/14 00:37:32;;;;;;;14.68;4.65;;;13.60;99.90;;;;;;5034299;28;20061;-60
2022/05/14 00:39:59;;;;;;;11.38;4.07;;;13.60;99.90;;;;;;5034419;28;20394;-59
2022/05/14 00:42:25;;;;;;;13.07;4.88;;;13.60;99.90;;;;;;5033329;28;20021;-60
2022/05/14 00:44:52;;;;;;;15.48;4.70;;;13.60;99.90;;;;;;5032158;28;20461;-60
2022/05/14 00:47:19;;;;;;;13.52;4.90;;;13.70;99.90;;;;;;5038707;28;20124;-60
2022/05/14 00:49:46;;;;;;;12.60;4.72;;;13.80;99.90;;;;;;5038539;28;20104;-59
2022/05/14 00:52:18;;;;;;;12.32;4.43;;;13.80;99.90;;;;;;5037995;28;20092;-59
2022/05/14 00:55:01;;;;;;;10.88;4.38;;;13.80;99.90;;;;;;5038196;28;20116;-59
2022/05/14 00:57:31;;;;;;;11.88;4.75;;;13.70;99.90;;;;;;5037481;28;20143;-60
2022/05/14 01:00:00;;;;;;;11.10;4.60;;;13.70;99.90;;;;;;5034036;28;20463;-60
2022/05/14 01:02:28;;;;;;;11.13;4.60;;;13.60;99.90;;;;;;5046385;28;20029;-59
2022/05/14 01:04:54;;;;;;;9.80;3.80;;;13.50;99.90;;;;;;5036521;28;20552;-60
2022/05/14 01:07:22;;;;;;;9.90;4.38;;;13.40;99.90;;;;;;5037852;28;20037;-59
2022/05/14 01:09:52;;;;;;;8.43;4.00;;;13.30;99.90;;;;;;5037963;28;20048;-60
2022/05/14 01:12:20;;;;;;;11.90;4.30;;;13.30;99.90;;;;;;5036075;28;20029;-60
2022/05/14 01:14:46;;;;;;;10.18;3.72;;;13.20;99.90;;;;;;5034806;28;20017;-60
2022/05/14 01:17:12;;;;;;;8.73;4.07;;;13.30;99.90;;;;;;5039378;28;20029;-59
2022/05/14 01:19:38;;;;;;;10.57;4.35;;;13.40;99.90;;;;;;5037672;28;20036;-60
2022/05/14 01:22:30;;;;;;;9.73;4.10;;;13.30;99.90;;;;;;5037480;28;20033;-60
2022/05/14 01:28:29;;;;;;;9.77;3.95;;;13.20;99.90;;;;;;5012330;28;20080;-60
2022/05/14 01:31:00;;;;;;;10.27;4.25;;;13.00;99.90;;;;;;5012003;28;20030;-60
2022/05/14 01:33:26;;;;;;;10.55;4.70;;;13.00;99.90;;;;;;5012430;28;20045;-61
2022/05/14 01:35:52;;;;;;;11.10;4.53;;;12.90;99.90;;;;;;5012484;28;20128;-61
2022/05/14 01:38:20;;;;;;;8.48;4.30;;;12.80;99.90;;;;;;5011842;28;20173;-61
2022/05/14 01:40:46;;;;;;;10.30;4.55;;;12.90;99.90;;;;;;5011252;28;20026;-60
2022/05/14 01:43:12;;;;;;;8.52;4.30;;;12.90;99.90;;;;;;5010807;28;20121;-59
2022/05/14 01:45:38;;;;;;;9.15;4.25;;;13.00;99.90;;;;;;5010676;28;20064;-60
2022/05/14 01:48:04;;;;;;;10.13;4.07;;;12.90;99.90;;;;;;5011105;28;20499;-61
2022/05/14 01:50:31;;;;;;;11.95;4.70;;;12.90;99.90;;;;;;5011327;28;20033;-60
2022/05/14 01:52:56;;;;;;;6.88;3.80;;;12.90;99.90;;;;;;5011058;28;20125;-60
2022/05/14 01:55:22;;;;;;;10.60;4.28;;;12.80;99.90;;;;;;5010419;28;20101;-60
2022/05/14 01:57:48;;;;;;;9.13;4.47;;;12.80;99.90;;;;;;5010680;28;20026;-59
2022/05/14 02:00:16;;;;;;;9.32;4.53;;;12.70;99.90;;;;;;5010989;28;20049;-60
2022/05/14 02:02:42;;;;;;;9.25;4.28;;;12.70;99.90;;;;;;5010926;28;20491;-59
2022/05/14 02:05:08;;;;;;;8.93;4.57;;;12.90;99.90;;;;;;5034759;28;20067;-60
2022/05/14 02:07:34;;;;;;;10.32;4.32;;;13.10;99.90;;;;;;5035430;28;20038;-60
2022/05/14 02:10:00;;;;;;;14.15;4.93;;;13.00;99.90;;;;;;5035692;28;20024;-60
2022/05/14 02:12:26;;;;;;;12.15;4.90;;;12.90;99.90;;;;;;5035049;28;20027;-59
2022/05/14 02:14:52;;;;;;;10.57;5.05;;;12.90;99.90;;;;;;5031811;28;20117;-59
2022/05/14 02:17:17;;;;;;;9.63;4.65;;;12.90;99.90;;;;;;5037540;28;20076;-61
2022/05/14 02:19:43;;;;;;;10.13;4.97;;;12.80;99.90;;;;;;5035498;28;20104;-60
2022/05/14 02:22:09;;;;;;;11.43;4.60;;;12.80;99.90;;;;;;5035302;28;20112;-60
2022/05/14 02:24:36;;;;;;;11.15;4.80;;;12.60;99.90;;;;;;5035434;28;20163;-59
2022/05/14 02:27:03;;;;;;;11.10;4.90;;;12.60;99.90;;;;;;5029661;28;20030;-60
2022/05/14 02:29:50;;;;;;;9.23;4.70;;;12.60;99.90;;;;;;5036688;28;20383;-60
2022/05/14 02:32:14;;;;;;;9.32;4.20;;;12.50;99.90;;;;;;5035863;28;20120;-59
2022/05/14 02:34:40;;;;;;;12.48;5.03;;;12.40;99.90;;;;;;5035262;28;20104;-61
2022/05/14 02:37:06;;;;;;;8.27;4.60;;;12.40;99.90;;;;;;4985134;28;1441349;-59
2022/05/14 02:39:31;;;;;;;11.80;4.80;;;12.40;99.90;;;;;;5036037;28;20398;-60
2022/05/14 02:41:57;;;;;;;8.18;4.70;;;12.40;99.90;;;;;;5031112;28;20033;-60
2022/05/14 02:44:23;;;;;;;9.90;4.97;;;12.30;99.90;;;;;;5037463;28;20029;-60
2022/05/14 02:46:48;;;;;;;10.48;4.85;;;12.40;99.90;;;;;;5035908;28;20478;-60
2022/05/14 02:49:14;;;;;;;12.27;4.60;;;12.20;99.90;;;;;;5036020;28;20402;-60
2022/05/14 02:51:40;;;;;;;7.22;4.78;;;12.20;99.90;;;;;;5035885;28;20025;-59
2022/05/14 02:54:06;;;;;;;11.25;4.90;;;12.30;99.90;;;;;;5032642;28;20013;-61
2022/05/14 02:56:31;;;;;;;10.93;4.53;;;12.30;99.90;;;;;;5036786;28;20021;-61
2022/05/14 02:59:09;;;;;;;13.02;5.22;;;12.30;99.90;;;;;;5036065;28;20036;-60
2022/05/14 03:01:37;;;;;;;12.85;4.85;;;12.40;99.90;;;;;;5035711;28;20095;-60
2022/05/14 03:04:06;;;;;;;9.35;4.85;;;12.30;99.90;;;;;;5035688;28;20014;-60
2022/05/14 03:06:32;;;;;;;9.30;4.88;;;12.30;99.90;;;;;;5034007;28;20078;-60
2022/05/14 03:08:57;;;;;;;9.20;4.65;;;12.40;99.90;;;;;;5029584;28;20438;-60
2022/05/14 03:11:23;;;;;;;7.63;4.38;;;12.30;99.90;;;;;;5037459;28;20108;-60
2022/05/14 03:13:49;;;;;;;9.32;4.30;;;12.20;99.90;;;;;;5035333;28;20025;-60
2022/05/14 03:16:15;;;;;;;7.82;4.22;;;12.10;99.90;;;;;;5035420;28;20048;-60
2022/05/14 03:18:41;;;;;;;8.63;4.30;;;12.10;99.90;;;;;;5035711;28;20021;-60
2022/05/14 03:21:07;;;;;;;7.28;4.30;;;11.90;99.90;;;;;;5030422;28;20037;-60
2022/05/14 03:23:32;;;;;;;6.95;4.10;;;11.90;99.90;;;;;;5034720;28;20025;-61
2022/05/14 03:25:58;;;;;;;8.02;4.20;;;12.00;99.90;;;;;;5034547;28;20509;-60
2022/05/14 03:28:24;;;;;;;7.95;4.25;;;12.20;99.90;;;;;;5033474;28;20091;-61
2022/05/14 03:30:50;;;;;;;8.25;4.53;;;12.30;99.90;;;;;;5035162;28;20025;-60
2022/05/14 03:33:15;;;;;;;7.53;3.85;;;12.10;99.90;;;;;;5032858;28;20036;-60
2022/05/14 03:35:41;;;;;;;6.35;4.47;;;12.00;99.90;;;;;;5033721;28;20030;-59
2022/05/14 03:38:07;;;;;;;8.20;4.40;;;12.00;99.90;;;;;;5036523;28;20107;-60
2022/05/14 03:40:33;;;;;;;9.18;4.40;;;11.90;99.90;;;;;;5034575;28;20029;-62
2022/05/14 03:42:58;;;;;;;7.28;4.05;;;11.90;99.90;;;;;;5034761;28;20029;-60
2022/05/14 03:45:24;;;;;;;10.90;4.72;;;11.90;99.90;;;;;;5031509;28;20705;-60
2022/05/14 03:47:50;;;;;;;7.15;4.13;;;11.80;99.90;;;;;;5031948;28;20065;-61
2022/05/14 03:50:16;;;;;;;8.27;4.47;;;11.80;99.90;;;;;;5036802;28;20032;-59
2022/05/14 03:52:42;;;;;;;7.50;4.50;;;12.00;99.90;;;;;;5034651;28;20046;-58
2022/05/14 03:55:08;;;;;;;6.32;4.30;;;12.00;99.90;;;;;;5034704;28;20541;-60
2022/05/14 03:57:34;;;;;;;7.50;4.38;;;11.90;99.90;;;;;;5034741;28;20033;-60
2022/05/14 04:00:01;;;;;;;9.73;4.55;;;11.80;99.90;;;;;;5028872;28;20025;-60
2022/05/14 04:02:27;;;;;;;9.18;4.32;;;11.70;99.90;;;;;;5036729;28;20348;-60
2022/05/14 04:04:53;;;;;;;10.30;4.68;;;11.80;99.90;;;;;;5034416;28;20029;-59
2022/05/14 04:07:19;;;;;;;7.18;4.50;;;11.90;99.90;;;;;;5034541;28;20036;-60
2022/05/14 04:09:45;;;;;;;8.55;4.57;;;11.90;99.90;;;;;;5034989;28;20029;-59
2022/05/14 04:12:11;;;;;;;8.40;4.57;;;11.70;99.90;;;;;;5031297;28;20116;-60
2022/05/14 04:14:36;;;;;;;7.55;4.93;;;11.70;99.90;;;;;;5034150;28;20021;-60
2022/05/14 04:17:03;;;;;;;9.35;4.88;;;11.70;99.90;;;;;;5034129;28;20437;-60
2022/05/14 04:19:29;;;;;;;9.90;5.30;;;11.60;99.90;;;;;;5034995;28;20056;-60
2022/05/14 04:21:54;;;;;;;9.57;5.30;;;11.70;99.90;;;;;;5034230;28;20034;-60
2022/05/14 04:24:20;;;;;;;8.32;5.10;;;11.70;99.90;;;;;;5033089;28;20078;-60
2022/05/14 04:26:46;;;;;;;7.97;4.60;;;11.70;99.90;;;;;;5031133;28;20516;-60
2022/05/14 04:29:12;;;;;;;7.90;4.90;;;11.70;99.90;;;;;;5036636;28;20017;-60
2022/05/14 04:31:39;;;;;;;9.45;4.95;;;11.60;99.90;;;;;;5034254;28;20033;-60
2022/05/14 04:34:05;;;;;;;7.18;4.70;;;11.70;99.90;;;;;;5034387;28;20040;-59
2022/05/14 04:36:31;;;;;;;6.90;4.78;;;11.80;99.90;;;;;;5034626;28;20117;-59
2022/05/14 04:38:57;;;;;;;6.53;4.43;;;11.80;99.90;;;;;;5012850;28;20120;-60
2022/05/14 04:41:27;;;;;;;8.60;4.93;;;11.60;99.90;;;;;;5035568;28;20034;-60
2022/05/14 04:43:52;;;;;;;9.07;5.10;;;11.70;99.90;;;;;;5034009;28;20061;-61
2022/05/14 04:46:18;;;;;;;7.95;4.88;;;11.60;99.90;;;;;;5034576;28;20506;-61
2022/05/14 04:48:44;;;;;;;8.27;4.65;;;11.70;99.90;;;;;;5034203;28;20072;-59
2022/05/14 04:51:10;;;;;;;7.82;4.72;;;11.70;99.90;;;;;;5031165;28;20057;-59
2022/05/14 04:53:35;;;;;;;6.93;4.18;;;11.70;99.90;;;;;;5033716;28;20100;-60
2022/05/14 04:56:01;;;;;;;7.10;4.35;;;11.90;99.90;;;;;;5034838;28;20025;-60
2022/05/14 04:58:27;;;;;;;8.63;4.18;;;11.90;99.90;;;;;;5034212;28;20443;-59
2022/05/14 05:00:52;;;;;;;11.52;4.70;;;12.10;99.90;;;;;;5034472;28;20107;-60
2022/05/14 05:03:19;;;;;;;8.50;4.78;;;12.10;99.90;;;;;;5032345;28;20029;-60
2022/05/14 05:05:51;;;;;;;9.68;4.80;;;12.30;99.90;;;;;;5031257;28;20113;-59
2022/05/14 05:08:18;;;;;;;9.98;4.82;;;12.40;99.90;;;;;;5035663;28;20471;-60
2022/05/14 05:10:44;;;;;;;7.85;4.20;;;12.50;99.90;;;;;;5033952;28;20033;-60
2022/05/14 05:13:19;;;;;;;8.35;4.35;;;12.60;99.90;;;;;;5033806;28;20030;-59
2022/05/14 05:15:45;;;;;;;6.70;4.40;;;12.70;99.90;;;;;;5034350;28;20083;-59
2022/05/14 05:18:12;;;;;;;6.30;4.32;;;12.70;99.90;;;;;;5029737;28;20030;-59
2022/05/14 05:20:39;;;;;;;9.25;4.22;;;12.90;99.90;;;;;;5032829;28;20108;-59
2022/05/14 05:23:05;;;;;;;9.60;4.38;;;13.00;99.90;;;;;;5035020;28;20029;-59
2022/05/14 05:25:32;;;;;;;6.63;4.10;;;13.20;99.90;;;;;;5033858;28;20387;-59
2022/05/14 05:27:58;;;;;;;6.53;4.05;;;13.40;99.90;;;;;;5033694;28;20033;-57
2022/05/14 05:30:24;;;;;;;8.80;4.47;;;13.50;99.90;;;;;;5033073;28;20028;-58
2022/05/14 05:32:51;;;;;;;6.95;4.38;;;13.70;99.90;;;;;;5034040;28;20033;-58
2022/05/14 05:35:17;;;;;;;7.18;4.15;;;13.70;99.90;;;;;;5039474;28;20033;-58
2022/05/14 05:37:44;;;;;;;6.13;4.20;;;14.00;99.90;;;;;;5036820;28;20049;-58
2022/05/14 05:40:10;;;;;;;7.55;4.10;;;14.30;99.90;;;;;;5037015;28;20068;-59
2022/05/14 05:42:36;;;;;;;5.00;3.70;;;14.60;99.90;;;;;;5034400;28;20032;-59
2022/05/14 05:45:02;;;;;;;8.90;4.10;;;14.80;99.90;;;;;;5033116;28;20025;-58
2022/05/14 05:47:28;;;;;;;8.27;4.20;;;14.90;99.90;;;;;;5038879;28;20033;-59
2022/05/14 05:49:54;;;;;;;5.63;3.70;;;14.90;99.90;;;;;;5036618;28;20037;-59
2022/05/14 05:52:19;;;;;;;8.27;3.92;;;15.10;99.90;;;;;;5035046;28;20032;-59
2022/05/14 05:57:33;;;;;;;;;;;15.50;99.90;;;;;;5035656;28;20024;-58
2022/05/14 05:59:59;;;;;;;6.97;3.25;;;15.70;99.90;;;;;;5016933;28;20280;-59
2022/05/14 06:02:25;;;;;;;9.65;3.40;;;15.50;99.90;;;;;;5045708;28;20033;-59
2022/05/14 06:04:51;;;;;;;9.05;3.10;;;15.80;99.90;;;;;;5037253;28;20103;-58
2022/05/14 06:07:17;;;;;;;11.82;4.00;;;16.10;99.90;;;;;;5036345;28;20100;-59
2022/05/14 06:09:42;;;;;;;10.85;3.28;;;16.20;99.90;;;;;;5036875;28;20025;-58
2022/05/14 06:12:09;;;;;;;11.57;3.40;;;16.10;99.90;;;;;;5033592;28;20120;-59
2022/05/14 06:14:35;;;;;;;11.57;3.40;;;16.20;99.90;;;;;;5036924;28;20017;-59
2022/05/14 06:17:00;;;;;;;9.82;3.58;;;16.10;99.90;;;;;;5037373;28;20021;-59
2022/05/14 06:19:26;;;;;;;6.95;3.35;;;16.20;99.90;;;;;;5036412;28;20029;-59
2022/05/14 06:21:52;;;;;;;7.75;3.33;;;16.20;99.90;;;;;;5034733;28;20041;-58
2022/05/14 06:24:18;;;;;;;6.13;3.47;;;16.50;99.90;;;;;;5034787;28;20036;-59
2022/05/14 06:26:43;;;;;;;8.90;3.60;;;16.90;99.90;;;;;;5034601;28;20112;-61
2022/05/14 06:29:09;;;;;;;10.50;3.40;;;17.20;99.90;;;;;;5036030;28;20387;-60
2022/05/14 06:31:35;;;;;;;5.32;3.13;;;17.70;99.90;;;;;;5036299;28;20099;-60
2022/05/14 06:34:02;;;;;;;4.95;3.10;;;18.20;99.90;;;;;;5036032;28;20028;-60
2022/05/14 06:36:28;;;;;;;6.30;4.15;;;19.10;99.90;;;;;;5033563;28;20083;-60
2022/05/14 06:38:54;;;;;;;7.45;3.78;;;19.40;99.90;;;;;;5032055;28;20057;-60
2022/05/14 06:41:19;;;;;;;6.15;3.92;;;20.80;99.90;;;;;;5037952;28;20030;-60
2022/05/14 06:43:45;;;;;;;5.63;3.92;;;20.70;99.90;;;;;;5035368;28;20029;-60
2022/05/14 06:46:11;;;;;;;6.97;4.47;;;20.90;99.90;;;;;;5036083;28;20059;-60
2022/05/14 06:48:37;;;;;;;8.15;3.92;;;21.70;99.90;;;;;;5036026;28;20048;-60
2022/05/14 06:51:10;;;;;;;5.13;4.03;;;22.90;99.90;;;;;;5031924;28;20031;-60
2022/05/14 06:53:39;;;;;;;6.28;3.78;;;23.40;99.90;;;;;;5035845;28;20060;-60
2022/05/14 06:56:07;;;;;;;9.50;4.20;;;23.50;99.90;;;;;;5037165;28;20084;-60
2022/05/14 06:58:36;;;;;;;5.55;3.90;;;23.70;99.90;;;;;;5035672;28;20049;-59
2022/05/14 07:01:02;;;;;;;8.40;3.90;;;24.00;99.90;;;;;;5036097;28;20029;-60
2022/05/14 07:09:00;;;;;;;5.53;3.78;;;24.80;99.90;;;;;;5015674;28;20040;-60
2022/05/14 07:11:25;;;;;;;6.78;4.03;;;25.00;99.90;;;;;;5044419;28;20033;-60
2022/05/14 07:13:51;;;;;;;6.10;3.88;;;25.10;99.90;;;;;;5036270;28;20045;-60
2022/05/14 07:16:18;;;;;;;5.55;3.80;;;25.00;99.90;;;;;;5033909;28;20025;-60
2022/05/14 07:18:44;;;;;;;6.90;4.00;;;25.40;99.90;;;;;;5034740;28;20017;-60
2022/05/14 07:21:10;;;;;;;9.25;3.85;;;25.10;99.90;;;;;;5032342;28;20068;-60
2022/05/14 07:23:36;;;;;;;7.25;3.80;;;25.00;99.90;;;;;;5035504;28;20021;-60
2022/05/14 07:26:03;;;;;;;6.80;3.55;;;26.10;99.90;;;;;;5036164;28;20481;-60
2022/05/14 07:28:29;;;;;;;6.07;3.45;;;27.90;99.90;;;;;;5035060;28;20048;-60
2022/05/14 07:30:55;;;;;;;6.85;3.90;;;27.00;99.90;;;;;;5034870;28;20021;-60
2022/05/14 07:33:20;;;;;;;9.70;4.10;;;27.10;99.90;;;;;;5033682;28;20032;-60
2022/05/14 07:35:46;;;;;;;5.38;3.95;;;27.00;99.90;;;;;;5032295;28;20022;-60
2022/05/14 07:38:12;;;;;;;6.47;3.20;;;26.90;99.90;;;;;;5036834;28;20047;-60
2022/05/14 07:40:39;;;;;;;5.57;3.85;;;28.00;99.90;;;;;;5034752;28;20529;-60
2022/05/14 07:43:18;;;;;;;6.85;3.88;;;28.40;99.90;;;;;;5034976;28;20175;-60
2022/05/14 07:45:53;;;;;;;6.97;3.63;;;28.80;99.90;;;;;;5034871;28;20450;-60
2022/05/14 07:48:32;;;;;;;5.30;3.17;;;29.20;99.90;;;;;;5033024;28;20037;-60
2022/05/14 07:50:59;;;;;;;7.18;3.33;;;29.00;99.90;;;;;;5014871;28;20037;-60
2022/05/14 07:53:30;;;;;;;4.53;3.15;;;29.40;99.90;;;;;;5036271;28;20564;-61
2022/05/14 07:55:56;;;;;;;5.30;3.50;;;29.00;99.90;;;;;;5035431;28;20025;-60
2022/05/14 07:58:24;;;;;;;4.05;3.65;;;28.90;99.90;;;;;;5034561;28;20026;-60
2022/05/14 08:00:50;;;;;;;4.78;3.60;;;29.90;99.90;;;;;;5034494;28;20029;-60
2022/05/14 08:03:16;;;;;;;5.03;3.60;;;28.30;99.90;;;;;;5032231;28;20025;-61
2022/05/14 08:05:42;;;;;;;5.55;3.65;;;29.80;99.90;;;;;;5033238;28;20036;-60
2022/05/14 08:08:08;;;;;;;4.85;3.30;;;29.90;99.90;;;;;;5036076;28;20051;-61
2022/05/14 08:10:34;;;;;;;5.50;3.42;;;29.60;99.90;;;;;;5034525;28;20026;-60
2022/05/14 08:13:00;;;;;;;4.10;3.47;;;29.50;99.90;;;;;;5034495;28;20033;-60
2022/05/14 08:15:27;;;;;;;6.65;3.72;;;29.30;99.90;;;;;;5034037;28;20025;-60
2022/05/14 08:17:53;;;;;;;3.75;3.30;;;28.80;99.90;;;;;;5030471;28;20064;-60
2022/05/14 08:20:20;;;;;;;4.45;3.53;;;29.20;99.90;;;;;;5036431;28;20443;-60
2022/05/14 08:25:30;;;;;;;5.80;3.40;;;29.40;99.90;;;;;;5034610;28;20037;-60
2022/05/14 08:27:57;;;;;;;5.20;3.88;;;28.20;99.90;;;;;;5034590;28;20099;-61
2022/05/14 08:30:29;;;;;;;6.25;3.80;;;28.20;99.90;;;;;;5032893;28;20021;-61
2022/05/14 08:32:55;;;;;;;5.43;3.40;;;28.40;99.90;;;;;;5029461;28;20411;-61
2022/05/14 08:35:22;;;;;;;6.05;3.55;;;29.90;99.90;;;;;;5035579;28;20033;-61
2022/05/14 08:37:52;;;;;;;4.50;3.58;;;30.70;99.90;;;;;;5033908;28;20068;-61
2022/05/14 08:40:21;;;;;;;3.72;3.25;;;31.00;99.90;;;;;;5034416;28;20025;-61
2022/05/14 08:42:54;;;;;;;7.78;3.63;;;30.40;99.90;;;;;;5034223;28;20040;-60
2022/05/14 08:45:22;;;;;;;6.72;3.50;;;30.50;99.90;;;;;;5032872;28;20020;-61
2022/05/14 08:48:04;;;;;;;7.13;3.45;;;29.50;99.90;;;;;;5030842;28;20078;-61
2022/05/14 08:50:34;;;;;;;3.78;3.35;;;30.10;99.60;;;;;;5059336;28;20026;-60
2022/05/14 08:53:01;;;;;;;5.70;3.88;;;30.10;98.80;;;;;;5033342;28;20025;-61
2022/05/14 08:56:02;;;;;;;4.85;3.58;;;29.20;97.60;;;;;;5034011;28;20021;-60
2022/05/14 08:58:42;;;;;;;3.90;3.50;;;29.20;97.80;;;;;;5032747;28;20033;-60
2022/05/14 09:01:12;;;;;;;4.63;3.65;;;29.80;97.80;;;;;;5033635;28;20120;-60
2022/05/14 09:03:43;;;;;;;6.20;3.60;;;30.60;96.90;;;;;;5032791;28;20428;-61
2022/05/14 09:06:09;;;;;;;5.32;3.60;;;30.90;97.60;;;;;;5032670;28;20041;-60
2022/05/14 09:08:35;;;;;;;6.57;3.88;;;30.40;98.30;;;;;;5037826;28;20413;-61
2022/05/14 09:11:11;;;;;;;5.32;3.70;;;29.50;98.40;;;;;;5038509;28;20112;-60
2022/05/14 09:13:47;;;;;;;5.28;3.92;;;28.80;99.90;;;;;;5036707;28;20033;-60
2022/05/14 09:16:23;;;;;;;5.97;3.97;;;29.20;98.50;;;;;;5037308;28;20021;-60
2022/05/14 09:18:50;;;;;;;5.85;3.90;;;29.80;98.80;;;;;;5037577;28;20113;-60
2022/05/14 09:21:21;;;;;;;7.50;4.32;;;29.90;98.40;;;;;;5035403;28;20552;-61
2022/05/14 09:24:03;;;;;;;10.02;4.13;;;29.90;96.60;;;;;;5035110;28;20036;-60
2022/05/14 09:26:32;;;;;;;6.05;3.92;;;29.40;97.50;;;;;;5047098;28;20033;-60
2022/05/14 09:29:11;;;;;;;6.22;3.70;;;29.20;97.50;;;;;;5036640;28;20094;-60
2022/05/14 09:31:59;;;;;;;6.80;4.13;;;29.50;96.40;;;;;;5037297;28;20116;-61
2022/05/14 09:34:27;;;;;;;4.57;4.00;;;29.20;97.30;;;;;;5037344;28;20501;-60
2022/05/14 09:36:53;;;;;;;5.10;3.97;;;28.90;97.50;;;;;;5037532;28;20034;-60
2022/05/14 09:39:23;;;;;;;6.47;4.07;;;29.80;97.10;;;;;;5035483;28;20026;-60
2022/05/14 09:41:53;;;;;;;5.80;4.15;;;30.50;96.40;;;;;;5034132;28;20100;-61
2022/05/14 09:44:22;;;;;;;4.50;4.00;;;29.80;97.10;;;;;;5038933;28;20052;-60
2022/05/14 09:46:49;;;;;;;7.03;4.30;;;29.10;97.70;;;;;;5037109;28;20374;-60
2022/05/14 09:49:33;;;;;;;6.00;4.20;;;28.80;99.20;;;;;;5035667;28;20033;-61
2022/05/14 09:52:05;;;;;;;6.43;4.00;;;29.60;98.90;;;;;;5035925;28;20022;-60
2022/05/14 09:54:41;;;;;;;5.32;4.72;;;29.50;98.60;;;;;;5037073;28;20032;-60
2022/05/14 09:57:26;;;;;;;5.38;4.30;;;29.90;96.00;;;;;;5018720;28;20398;-60
2022/05/14 10:00:10;;;;;;;4.28;3.88;;;30.10;95.70;;;;;;5033193;28;20037;-61
2022/05/14 10:03:07;;;;;;;6.50;4.15;;;30.30;95.70;;;;;;5046777;28;20481;-60
2022/05/14 10:06:05;;;;;;;5.20;4.32;;;30.50;95.80;;;;;;5046541;28;20017;-60
2022/05/14 10:08:31;;;;;;;6.88;4.15;;;29.80;99.70;;;;;;5046235;28;20044;-61
2022/05/14 10:11:20;;;;;;;5.85;4.38;;;29.60;99.90;;;;;;5037389;28;20017;-60
2022/05/14 10:14:09;;;;;;;4.95;4.10;;;29.30;99.60;;;;;;5036255;28;20026;-63
2022/05/14 10:16:39;;;;;;;8.45;4.20;;;28.60;99.90;;;;;;5036139;28;20116;-60
2022/05/14 10:19:23;;;;;;;5.00;4.25;;;29.40;99.30;;;;;;5036641;28;20487;-60
2022/05/14 10:21:57;;;;;;;7.05;4.20;;;29.40;99.60;;;;;;5036483;28;20088;-61
2022/05/14 10:27:55;;;;;;;5.97;4.10;;;29.00;99.60;;;;;;5022616;28;20047;-60
2022/05/14 10:30:41;;;;;;;6.13;4.00;;;29.20;99.30;;;;;;4998771;28;20507;-60
2022/05/14 10:33:12;;;;;;;5.60;4.07;;;29.60;99.30;;;;;;4996665;28;20026;-60
2022/05/14 10:36:08;;;;;;;4.90;4.15;;;29.30;99.90;;;;;;5011509;28;20077;-60
2022/05/14 10:38:43;;;;;;;9.52;4.93;;;29.60;99.80;;;;;;5024343;28;20085;-61
2022/05/14 10:41:09;;;;;;;7.07;5.68;;;29.00;99.90;;;;;;5011479;28;20530;-60
2022/05/14 10:43:37;;;;;;;6.00;5.43;;;28.70;99.90;;;;;;5010765;28;20034;-60
2022/05/14 10:46:09;;;;;;;5.55;4.18;;;29.10;99.80;;;;;;5011016;28;20057;-61
2022/05/14 10:48:44;;;;;;;5.90;5.30;;;29.20;99.60;;;;;;5010873;28;20045;-60
2022/05/14 10:51:13;;;;;;;7.78;4.40;;;29.20;99.90;;;;;;5011496;28;20459;-60
2022/05/14 10:53:41;;;;;;;8.40;5.30;;;29.60;99.30;;;;;;5010684;28;20117;-61
2022/05/14 10:56:12;;;;;;;5.13;4.20;;;29.60;99.10;;;;;;5011411;28;20049;-60
2022/05/14 10:58:56;;;;;;;8.02;6.90;;;30.10;98.30;;;;;;5010617;28;20048;-61
2022/05/14 11:01:30;;;;;;;7.60;5.95;;;29.50;99.40;;;;;;5010596;28;20029;-61
2022/05/14 11:04:18;;;;;;;18.63;12.23;;;29.40;99.40;;;;;;5010706;28;20029;-60
2022/05/14 11:06:54;;;;;;;9.65;6.50;;;29.70;99.70;;;;;;5025378;28;20094;-60
2022/05/14 11:09:42;;;;;;;7.55;6.38;;;29.60;99.90;;;;;;5032621;28;20026;-60
2022/05/14 11:12:27;;;;;;;6.90;4.03;;;29.60;98.70;;;;;;5017342;28;20039;-61
2022/05/14 11:14:56;;;;;;;6.20;4.30;;;29.60;98.60;;;;;;5030181;28;20476;-60
2022/05/14 11:17:29;;;;;;;3.90;3.60;;;29.80;97.90;;;;;;5037868;28;20021;-60
2022/05/14 11:20:08;;;;;;;5.88;4.00;;;30.20;98.00;;;;;;5035351;28;20037;-60
2022/05/14 11:22:43;;;;;;;4.72;3.80;;;30.20;97.50;;;;;;5035181;28;20027;-60
2022/05/14 11:25:21;;;;;;;4.22;3.80;;;29.90;97.70;;;;;;5034792;28;20056;-60
2022/05/14 11:28:09;;;;;;;4.70;3.80;;;30.30;97.70;;;;;;5034736;28;20123;-60
2022/05/14 11:30:40;;;;;;;7.88;3.83;;;29.80;98.20;;;;;;5035224;28;20094;-61
2022/05/14 11:33:24;;;;;;;7.35;4.20;;;30.00;98.30;;;;;;5031936;28;20494;-60
2022/05/14 11:35:52;;;;;;;5.05;3.85;;;30.60;97.80;;;;;;5031945;28;20478;-60
2022/05/14 11:38:23;;;;;;;7.57;3.90;;;30.40;97.90;;;;;;5037218;28;20099;-61
2022/05/14 11:41:00;;;;;;;6.28;3.63;;;30.20;97.90;;;;;;5034482;28;20037;-61
2022/05/14 11:43:38;;;;;;;6.75;3.70;;;29.90;98.40;;;;;;5034831;28;20210;-61
2022/05/14 11:46:10;;;;;;;4.93;3.95;;;30.20;99.00;;;;;;5034930;28;20045;-61
2022/05/14 11:49:04;;;;;;;5.07;3.47;;;30.60;98.80;;;;;;5033834;28;20079;-60
2022/05/14 11:51:29;;;;;;;5.53;3.75;;;30.10;98.60;;;;;;5034387;28;20445;-61
2022/05/14 11:54:17;;;;;;;7.63;3.78;;;30.50;99.70;;;;;;5031058;28;20033;-61
2022/05/14 11:56:53;;;;;;;8.00;3.85;;;30.60;99.50;;;;;;5044657;28;20082;-61
2022/05/14 12:00:03;;;;;;;4.70;3.50;;;30.70;98.50;;;;;;5035603;28;20018;-61
2022/05/14 12:02:37;;;;;;;4.18;3.35;;;30.40;97.20;;;;;;5043810;28;20532;-60
2022/05/14 12:05:07;;;;;;;5.78;3.60;;;30.80;95.80;;;;;;5034338;28;20364;-60
2022/05/14 12:07:41;;;;;;;6.18;3.50;;;30.00;96.10;;;;;;5034269;28;20041;-60
2022/05/14 12:10:09;;;;;;;3.75;3.35;;;30.20;95.10;;;;;;5032801;28;20029;-60
2022/05/14 12:13:20;;;;;;;5.95;4.00;;;30.50;93.70;;;;;;5034318;28;20036;-60
2022/05/14 12:15:56;;;;;;;4.95;3.80;;;30.30;93.60;;;;;;5009382;28;20045;-60
2022/05/14 12:18:22;;;;;;;4.78;4.07;;;30.30;93.40;;;;;;5009978;28;20415;-60
2022/05/14 12:21:00;;;;;;;7.47;3.67;;;30.20;93.40;;;;;;5009243;28;20041;-61
2022/05/14 12:23:42;;;;;;;6.35;3.83;;;30.50;93.60;;;;;;5009751;28;20018;-61
2022/05/14 12:26:30;;;;;;;5.88;3.90;;;30.90;93.40;;;;;;5009541;28;20061;-61
2022/05/14 12:28:58;;;;;;;5.82;3.90;;;31.20;92.50;;;;;;5009312;28;20037;-60
2022/05/14 12:34:16;;;;;;;4.75;4.07;;;30.70;94.00;;;;;;5009948;28;20084;-61
2022/05/14 12:36:50;;;;;;;6.15;4.07;;;30.60;94.70;;;;;;5009140;28;20142;-61
2022/05/14 12:39:27;;;;;;;4.32;3.92;;;30.50;95.40;;;;;;5009291;28;20037;-60
2022/05/14 12:42:04;;;;;;;4.03;3.60;;;30.70;92.40;;;;;;5013516;28;20034;-60
2022/05/14 12:44:32;;;;;;;4.68;4.00;;;31.00;91.40;;;;;;5010610;28;20088;-61
2022/05/14 12:47:01;;;;;;;5.88;4.30;;;30.80;91.60;;;;;;5013503;28;20052;-61
2022/05/14 12:49:46;;;;;;;7.05;4.60;;;31.10;93.20;;;;;;5012981;28;20044;-61
2022/05/14 12:52:21;;;;;;;5.72;3.55;;;31.40;93.50;;;;;;5024728;28;20048;-61
2022/05/14 12:54:58;;;;;;;4.80;3.80;;;31.20;90.70;;;;;;5047577;28;20082;-60
2022/05/14 12:57:25;;;;;;;5.28;3.97;;;31.50;90.90;;;;;;5036827;28;20396;-60
2022/05/14 12:59:52;;;;;;;3.88;3.45;;;30.90;94.10;;;;;;5034992;28;20240;-61
2022/05/14 13:02:31;;;;;;;8.02;3.92;;;31.20;95.00;;;;;;5040390;28;20547;-60
2022/05/14 13:05:07;;;;;;;6.43;3.70;;;31.40;94.00;;;;;;5038328;28;20477;-61
2022/05/14 13:07:42;;;;;;;4.30;3.30;;;31.40;94.60;;;;;;5036491;28;20034;-60
2022/05/14 13:10:08;;;;;;;5.85;3.22;;;31.40;93.10;;;;;;5037584;28;20215;-61
2022/05/14 13:12:35;;;;;;;5.18;3.00;;;31.10;92.60;;;;;;5036579;28;20021;-60
2022/05/14 13:15:05;;;;;;;4.20;3.20;;;31.10;92.20;;;;;;5033716;28;20488;-60
2022/05/14 13:17:35;;;;;;;5.72;3.10;;;31.00;92.40;;;;;;5046267;28;20100;-60
2022/05/14 13:20:04;;;;;;;6.18;3.22;;;31.30;92.50;;;;;;5037274;28;20413;-60